createdAt,value
2019-01-02T00:00:07.305Z,-1.72
2019-01-02T00:02:40.519Z,-1.74
2019-01-02T00:05:11.905Z,-1.73
2019-01-02T00:07:44.739Z,-1.75
2019-01-02T00:10:16.138Z,-1.68
2019-01-02T00:12:47.637Z,-1.66
2019-01-02T00:15:19.638Z,-1.66
2019-01-02T00:17:51.178Z,-1.61
2019-01-02T00:20:23.362Z,-1.67
2019-01-02T00:22:54.846Z,-1.57
2019-01-02T00:25:26.341Z,-1.63
2019-01-02T00:27:58.392Z,-1.63
2019-01-02T00:30:29.805Z,-1.59
2019-01-02T00:33:01.639Z,-1.62
2019-01-02T00:35:33.138Z,-1.53
2019-01-02T00:38:04.988Z,-1.55
2019-01-02T00:40:36.478Z,-1.52
2019-01-02T00:43:10.080Z,-1.54
2019-01-02T00:45:42.449Z,-1.60
2019-01-02T00:48:13.927Z,-1.63
2019-01-02T00:50:46.062Z,-1.59
2019-01-02T00:53:17.528Z,-1.58
2019-01-02T00:55:49.418Z,-1.56
2019-01-02T00:58:21.097Z,-1.51
2019-01-02T01:00:53.717Z,-1.50
2019-01-02T01:03:25.271Z,-1.53
2019-01-02T01:05:57.320Z,-1.49
2019-01-02T01:08:28.767Z,-1.42
2019-01-02T01:11:00.822Z,-1.42
2019-01-02T01:13:32.275Z,-1.39
2019-01-02T01:16:04.351Z,-1.45
2019-01-02T01:18:35.757Z,-1.45
2019-01-02T01:21:07.173Z,-1.47
2019-01-02T01:23:41.111Z,-1.49
2019-01-02T01:26:12.594Z,-1.49
2019-01-02T01:28:44.599Z,-1.43
2019-01-02T01:31:16.027Z,-1.43
2019-01-02T01:33:47.430Z,-1.41
2019-01-02T01:36:19.184Z,-1.46
2019-01-02T01:38:50.662Z,-1.47
2019-01-02T01:41:22.182Z,-1.46
2019-01-02T01:43:55.114Z,-1.46
2019-01-02T01:46:26.609Z,-1.51
2019-01-02T01:48:57.945Z,-1.47
2019-01-02T01:51:29.386Z,-1.42
2019-01-02T01:54:00.973Z,-1.48
2019-01-02T01:56:35.020Z,-1.55
2019-01-02T01:59:06.524Z,-1.49
2019-01-02T02:01:38.095Z,-1.44
2019-01-02T02:04:09.906Z,-1.45
2019-01-02T02:06:41.373Z,-1.41
2019-01-02T02:09:12.768Z,-1.48
2019-01-02T02:11:44.790Z,-1.47
2019-01-02T02:14:16.219Z,-1.43
2019-01-02T02:16:47.613Z,-1.44
2019-01-02T02:19:19.379Z,-1.48
2019-01-02T02:21:50.786Z,-1.48
2019-01-02T02:24:22.322Z,-1.42
2019-01-02T02:26:54.469Z,-1.44
2019-01-02T02:29:25.978Z,-1.38
2019-01-02T02:31:57.707Z,-1.38
2019-01-02T02:34:29.149Z,-1.45
2019-01-02T02:37:00.741Z,-1.48
2019-01-02T02:39:32.255Z,-1.50
2019-01-02T02:42:04.222Z,-1.48
2019-01-02T02:44:35.962Z,-1.52
2019-01-02T02:47:07.295Z,-1.49
2019-01-02T02:49:38.744Z,-1.47
2019-01-02T02:52:10.239Z,-1.39
2019-01-02T02:54:41.747Z,-1.35
2019-01-02T02:57:13.156Z,-1.36
2019-01-02T02:59:47.389Z,-1.30
2019-01-02T03:02:18.840Z,-1.34
2019-01-02T03:04:51.679Z,-1.34
2019-01-02T03:07:23.616Z,-1.42
2019-01-02T03:09:55.398Z,-1.42
2019-01-02T03:12:27.146Z,-1.42
2019-01-02T03:14:58.639Z,-1.37
2019-01-02T03:17:30.148Z,-1.34
2019-01-02T03:20:02.281Z,-1.25
2019-01-02T03:22:34.057Z,-1.33
2019-01-02T03:25:06.173Z,-1.33
2019-01-02T03:27:38.023Z,-1.39
2019-01-02T03:30:12.963Z,-1.46
2019-01-02T03:32:44.817Z,-1.47
2019-01-02T03:35:16.786Z,-1.54
2019-01-02T03:37:48.150Z,-1.45
2019-01-02T03:40:19.667Z,-1.49
2019-01-02T03:42:51.174Z,-1.46
2019-01-02T03:45:22.624Z,-1.49
2019-01-02T03:47:54.154Z,-1.49
2019-01-02T03:50:25.617Z,-1.66
2019-01-02T03:52:57.005Z,-1.67
2019-01-02T03:55:28.415Z,-1.65
2019-01-02T03:57:59.941Z,-1.62
2019-01-02T04:00:31.443Z,-1.65
2019-01-02T04:03:02.947Z,-1.59
2019-01-02T04:05:34.518Z,-1.57
2019-01-02T04:08:12.218Z,-1.56
2019-01-02T04:10:43.612Z,-1.61
2019-01-02T04:13:14.864Z,-1.62
2019-01-02T04:15:46.506Z,-1.71
2019-01-02T04:18:17.886Z,-1.74
2019-01-02T04:20:49.425Z,-1.75
2019-01-02T04:23:20.904Z,-1.77
2019-01-02T04:25:52.446Z,-1.75
2019-01-02T04:28:23.975Z,-1.77
2019-01-02T04:30:55.339Z,-1.80
2019-01-02T04:33:28.081Z,-1.69
2019-01-02T04:35:59.506Z,-1.74
2019-01-02T04:38:31.041Z,-1.78
2019-01-02T04:41:02.430Z,-1.81
2019-01-02T04:43:33.788Z,-1.85
2019-01-02T04:46:05.288Z,-1.81
2019-01-02T04:48:36.726Z,-1.86
2019-01-02T04:51:08.256Z,-1.91
2019-01-02T04:53:39.659Z,-1.89
2019-01-02T04:56:11.097Z,-1.84
2019-01-02T04:58:42.555Z,-1.77
2019-01-02T05:01:14.052Z,-1.86
2019-01-02T05:03:45.469Z,-1.82
2019-01-02T05:06:16.880Z,-1.87
2019-01-02T05:08:48.330Z,-1.86
2019-01-02T05:11:19.782Z,-1.88
2019-01-02T05:13:51.436Z,-1.85
2019-01-02T05:16:22.926Z,-1.87
2019-01-02T05:18:54.670Z,-1.88
2019-01-02T05:21:26.132Z,-1.91
2019-01-02T05:23:57.448Z,-1.90
2019-01-02T05:26:28.887Z,-1.89
2019-01-02T05:29:00.290Z,-1.93
2019-01-02T05:31:31.808Z,-1.93
2019-01-02T05:34:03.344Z,-1.89
2019-01-02T05:36:34.793Z,-1.87
2019-01-02T05:39:07.222Z,-1.85
2019-01-02T05:41:38.475Z,-1.80
2019-01-02T05:44:09.815Z,-1.80
2019-01-02T05:46:41.254Z,-1.78
2019-01-02T05:49:12.607Z,-1.82
2019-01-02T05:51:44.128Z,-1.81
2019-01-02T05:54:15.588Z,-1.88
2019-01-02T05:56:47.075Z,-1.86
2019-01-02T05:59:18.666Z,-1.76
2019-01-02T06:01:50.213Z,-1.78
2019-01-02T06:04:21.799Z,-1.82
2019-01-02T06:06:53.523Z,-1.78
2019-01-02T06:09:25.324Z,-1.74
2019-01-02T06:11:56.862Z,-1.75
2019-01-02T06:14:28.403Z,-1.76
2019-01-02T06:16:59.837Z,-1.76
2019-01-02T06:19:31.320Z,-1.68
2019-01-02T06:22:02.852Z,-1.73
2019-01-02T06:24:34.489Z,-1.69
2019-01-02T06:27:06.019Z,-1.61
2019-01-02T06:29:37.438Z,-1.54
2019-01-02T06:32:09.011Z,-1.47
2019-01-02T06:34:40.519Z,-1.38
2019-01-02T06:37:12.174Z,-1.35
2019-01-02T06:39:43.615Z,-1.29
2019-01-02T06:42:15.161Z,-1.23
2019-01-02T06:44:47.676Z,-1.14
2019-01-02T06:47:19.254Z,-1.10
2019-01-02T06:49:50.705Z,-1.01
2019-01-02T06:52:22.080Z,-0.93
2019-01-02T06:54:53.827Z,-0.78
2019-01-02T06:57:28.000Z,-0.61
2019-01-02T06:59:59.475Z,-0.40
2019-01-02T07:02:30.843Z,-0.22
2019-01-02T07:05:02.439Z,-0.14
2019-01-02T07:07:34.021Z,0.02
2019-01-02T07:10:05.450Z,0.16
2019-01-02T07:12:37.028Z,0.26
2019-01-02T07:15:09.357Z,0.41
2019-01-02T07:17:42.869Z,0.50
2019-01-02T07:20:15.054Z,0.60
2019-01-02T07:22:47.086Z,0.83
2019-01-02T07:25:19.082Z,1.03
2019-01-02T07:27:50.463Z,1.16
2019-01-02T07:30:26.229Z,1.15
2019-01-02T07:32:57.684Z,1.02
2019-01-02T07:36:15.641Z,1.05
2019-01-02T07:39:18.012Z,1.04
2019-01-02T07:42:25.801Z,1.07
2019-01-02T07:45:47.954Z,1.08
2019-01-02T07:49:17.752Z,1.00
2019-01-02T07:52:14.919Z,1.02
2019-01-02T07:55:24.834Z,1.10
2019-01-02T07:58:36.511Z,1.15
2019-01-02T08:01:36.012Z,1.23
2019-01-02T08:04:29.941Z,1.24
2019-01-02T08:07:52.843Z,1.32
2019-01-02T08:11:02.061Z,1.35
2019-01-02T08:14:41.127Z,1.36
2019-01-02T08:17:43.664Z,1.43
2019-01-02T08:20:58.089Z,1.57
2019-01-02T08:24:12.673Z,1.76
2019-01-02T08:27:23.524Z,2.05
2019-01-02T08:30:31.693Z,2.36
2019-01-02T08:33:32.987Z,2.52
2019-01-02T08:36:39.482Z,2.70
2019-01-02T08:39:54.139Z,3.22
2019-01-02T08:42:53.938Z,3.50
2019-01-02T08:45:56.883Z,4.00
2019-01-02T08:48:59.746Z,4.29
2019-01-02T08:52:13.284Z,4.37
2019-01-02T08:55:23.894Z,4.36
2019-01-02T08:58:34.335Z,4.55
2019-01-02T09:01:30.343Z,4.92
2019-01-02T09:04:50.923Z,5.07
2019-01-02T09:07:56.775Z,4.95
2019-01-02T09:10:50.604Z,5.05
2019-01-02T09:13:49.685Z,5.43
2019-01-02T09:17:06.341Z,5.40
2019-01-02T09:20:12.668Z,5.38
2019-01-02T09:23:07.516Z,5.60
2019-01-02T09:26:19.380Z,6.13
2019-01-02T09:29:13.017Z,6.13
2019-01-02T09:32:10.192Z,6.17
2019-01-02T09:35:22.103Z,5.99
2019-01-02T09:38:32.980Z,5.94
2019-01-02T09:41:31.573Z,6.58
2019-01-02T09:44:51.658Z,6.34
2019-01-02T09:47:52.095Z,6.27
2019-01-02T09:51:04.426Z,6.27
2019-01-02T09:54:10.993Z,6.11
2019-01-02T09:57:24.561Z,6.18
2019-01-02T10:00:37.584Z,6.35
2019-01-02T10:03:56.979Z,6.62
2019-01-02T10:07:08.634Z,6.83
2019-01-02T10:10:23.294Z,7.03
2019-01-02T10:13:13.246Z,7.55
2019-01-02T10:16:19.924Z,7.87
2019-01-02T10:19:46.537Z,8.04
2019-01-02T10:23:01.796Z,8.43
2019-01-02T10:26:09.916Z,8.44
2019-01-02T10:29:12.919Z,8.16
2019-01-02T10:32:27.295Z,8.34
2019-01-02T10:35:34.509Z,8.42
2019-01-02T10:38:37.642Z,8.45
2019-01-02T10:41:46.580Z,8.34
2019-01-02T10:44:56.784Z,7.92
2019-01-02T10:47:54.623Z,7.81
2019-01-02T10:50:51.728Z,7.79
2019-01-02T10:54:03.415Z,7.74
2019-01-02T10:56:50.549Z,7.53
2019-01-02T11:00:04.966Z,7.39
2019-01-02T11:03:04.256Z,7.17
2019-01-02T11:06:17.336Z,7.32
2019-01-02T11:09:50.313Z,7.24
2019-01-02T11:12:46.540Z,6.91
2019-01-02T11:15:54.251Z,6.91
2019-01-02T11:18:52.603Z,6.68
2019-01-02T11:21:54.785Z,6.59
2019-01-02T11:25:11.399Z,6.63
2019-01-02T11:28:18.350Z,6.35
2019-01-02T11:31:32.051Z,6.03
2019-01-02T11:34:33.618Z,5.80
2019-01-02T11:37:50.922Z,5.69
2019-01-02T11:40:59.566Z,5.40
2019-01-02T11:44:20.909Z,5.17
2019-01-02T11:46:47.593Z,5.02
2019-01-02T11:49:19.108Z,4.95
2019-01-02T11:51:50.678Z,4.89
2019-01-02T11:54:22.477Z,4.88
2019-01-02T11:56:53.863Z,4.81
2019-01-02T11:59:25.577Z,4.79
2019-01-02T12:01:56.947Z,4.74
2019-01-02T12:04:28.329Z,4.64
2019-01-02T12:06:59.769Z,4.59
2019-01-02T12:09:32.595Z,4.53
2019-01-02T12:12:03.931Z,4.47
2019-01-02T12:14:35.410Z,4.19
2019-01-02T12:17:06.945Z,4.09
2019-01-02T12:19:38.475Z,4.03
2019-01-02T12:22:09.928Z,3.91
2019-01-02T12:24:47.104Z,3.83
2019-01-02T12:27:14.985Z,3.87
2019-01-02T12:29:46.703Z,3.92
2019-01-02T12:32:18.224Z,3.97
2019-01-02T12:34:49.684Z,3.96
2019-01-02T12:37:21.290Z,3.86
2019-01-02T12:39:53.371Z,3.91
2019-01-02T12:42:24.976Z,3.93
2019-01-02T12:44:57.031Z,3.98
2019-01-02T12:47:28.520Z,3.97
2019-01-02T12:50:00.182Z,3.92
2019-01-02T12:52:31.710Z,3.84
2019-01-02T12:55:03.728Z,3.81
2019-01-02T12:57:36.968Z,3.78
2019-01-02T13:00:12.028Z,3.82
2019-01-02T13:03:29.481Z,3.85
2019-01-02T13:07:04.148Z,3.85
2019-01-02T13:09:56.019Z,3.92
2019-01-02T13:13:14.481Z,3.89
2019-01-02T13:16:32.371Z,3.82
2019-01-02T13:19:50.979Z,3.85
2019-01-02T13:22:53.666Z,3.83
2019-01-02T13:25:55.341Z,3.92
2019-01-02T13:28:53.560Z,3.92
2019-01-02T13:32:11.122Z,3.93
2019-01-02T13:35:14.585Z,3.88
2019-01-02T13:38:35.332Z,3.88
2019-01-02T13:41:48.686Z,3.87
2019-01-02T13:44:43.292Z,3.86
2019-01-02T13:48:16.122Z,3.77
2019-01-02T13:51:31.763Z,3.79
2019-01-02T13:54:03.371Z,3.78
2019-01-02T13:56:37.084Z,3.82
2019-01-02T13:59:08.509Z,3.81
2019-01-02T14:01:39.906Z,3.77
2019-01-02T14:04:12.109Z,3.73
2019-01-02T14:06:43.587Z,3.64
2019-01-02T14:09:16.315Z,3.65
2019-01-02T14:11:47.902Z,3.63
2019-01-02T14:14:20.505Z,3.60
2019-01-02T14:16:52.035Z,3.62
2019-01-02T14:19:23.537Z,3.54
2019-01-02T14:21:54.977Z,3.47
2019-01-02T14:24:26.518Z,3.47
2019-01-02T14:26:57.970Z,3.39
2019-01-02T14:29:29.330Z,3.35
2019-01-02T14:32:00.736Z,3.32
2019-01-02T14:34:32.266Z,3.27
2019-01-02T14:37:03.907Z,3.22
2019-01-02T14:39:35.819Z,3.24
2019-01-02T14:42:07.480Z,3.19
2019-01-02T14:44:38.786Z,3.27
2019-01-02T14:47:10.264Z,3.26
2019-01-02T14:49:41.686Z,3.15
2019-01-02T14:52:13.079Z,3.09
2019-01-02T14:54:44.597Z,3.00
2019-01-02T14:57:16.140Z,2.95
2019-01-02T14:59:48.745Z,2.94
2019-01-02T15:02:20.248Z,2.85
2019-01-02T15:04:51.749Z,2.77
2019-01-02T15:07:23.139Z,2.73
2019-01-02T15:09:54.807Z,2.69
2019-01-02T15:12:26.268Z,2.66
2019-01-02T15:14:57.658Z,2.61
2019-01-02T15:17:29.180Z,2.62
2019-01-02T15:20:00.753Z,2.59
2019-01-02T15:22:32.245Z,2.63
2019-01-02T15:25:06.135Z,2.63
2019-01-02T15:27:37.874Z,2.58
2019-01-02T15:30:12.639Z,2.66
2019-01-02T15:32:44.054Z,2.55
2019-01-02T15:35:15.450Z,2.59
2019-01-02T15:37:46.784Z,2.66
2019-01-02T15:40:18.355Z,2.73
2019-01-02T15:42:49.885Z,2.70
2019-01-02T15:45:21.721Z,2.64
2019-01-02T15:47:53.366Z,2.70
2019-01-02T15:50:24.892Z,2.64
2019-01-02T15:52:56.290Z,2.68
2019-01-02T15:55:27.888Z,2.64
2019-01-02T15:57:59.268Z,2.64
2019-01-02T16:00:30.807Z,2.65
2019-01-02T16:03:02.224Z,2.62
2019-01-02T16:05:35.303Z,2.58
2019-01-02T16:08:06.717Z,2.52
2019-01-02T16:10:38.183Z,2.57
2019-01-02T16:13:09.653Z,2.47
2019-01-02T16:15:41.134Z,2.48
2019-01-02T16:18:12.634Z,2.50
2019-01-02T16:20:44.131Z,2.46
2019-01-02T16:23:15.489Z,2.46
2019-01-02T16:25:46.966Z,2.46
2019-01-02T16:28:19.461Z,2.44
2019-01-02T16:30:50.912Z,2.43
2019-01-02T16:33:22.202Z,2.38
2019-01-02T16:35:53.796Z,2.36
2019-01-02T16:38:26.583Z,2.41
2019-01-02T16:40:58.090Z,2.33
2019-01-02T16:43:29.488Z,2.32
2019-01-02T16:46:00.917Z,2.35
2019-01-02T16:48:32.282Z,2.37
2019-01-02T16:51:03.692Z,2.31
2019-01-02T16:53:34.990Z,2.31
2019-01-02T16:56:06.479Z,2.30
2019-01-02T16:58:39.618Z,2.27
2019-01-02T17:01:11.189Z,2.21
2019-01-02T17:03:42.637Z,2.21
2019-01-02T17:06:14.113Z,2.24
2019-01-02T17:08:45.615Z,2.19
2019-01-02T17:11:17.027Z,2.17
2019-01-02T17:13:48.436Z,2.13
2019-01-02T17:16:19.883Z,2.16
2019-01-02T17:18:51.583Z,2.08
2019-01-02T17:21:23.089Z,2.06
2019-01-02T17:23:54.507Z,2.08
2019-01-02T17:26:26.144Z,2.09
2019-01-02T17:28:57.619Z,2.14
2019-01-02T17:31:29.036Z,2.16
2019-01-02T17:34:00.496Z,2.17
2019-01-02T17:36:31.961Z,2.11
2019-01-02T17:39:03.359Z,2.14
2019-01-02T17:41:36.063Z,2.15
2019-01-02T17:44:07.457Z,2.17
2019-01-02T17:46:38.998Z,2.18
2019-01-02T17:49:10.390Z,2.18
2019-01-02T17:51:41.886Z,2.16
2019-01-02T17:54:13.356Z,2.09
2019-01-02T17:56:44.869Z,2.08
2019-01-02T17:59:16.275Z,2.08
2019-01-02T18:01:47.739Z,2.12
2019-01-02T18:04:19.175Z,2.09
2019-01-02T18:06:50.682Z,2.04
2019-01-02T18:09:22.115Z,2.06
2019-01-02T18:11:53.635Z,2.08
2019-01-02T18:14:25.075Z,2.07
2019-01-02T18:16:56.501Z,2.09
2019-01-02T18:19:28.053Z,2.09
2019-01-02T18:21:59.390Z,2.14
2019-01-02T18:24:30.770Z,2.12
2019-01-02T18:27:02.318Z,2.06
2019-01-02T18:29:33.746Z,1.99
2019-01-02T18:32:05.208Z,2.08
2019-01-02T18:34:36.587Z,2.08
2019-01-02T18:37:08.147Z,2.04
2019-01-02T18:39:39.595Z,2.05
2019-01-02T18:42:12.511Z,2.07
2019-01-02T18:44:44.136Z,2.04
2019-01-02T18:47:15.537Z,2.06
2019-01-02T18:49:47.179Z,2.05
2019-01-02T18:52:19.336Z,2.05
2019-01-02T18:54:50.816Z,2.03
2019-01-02T18:57:22.340Z,2.01
2019-01-02T18:59:53.869Z,2.01
2019-01-02T19:02:25.359Z,2.01
2019-01-02T19:04:57.206Z,2.05
2019-01-02T19:07:28.745Z,2.04
2019-01-02T19:10:00.202Z,2.07
2019-01-02T19:12:31.674Z,2.04
2019-01-02T19:15:03.140Z,2.01
2019-01-02T19:17:34.499Z,2.05
2019-01-02T19:20:06.894Z,2.09
2019-01-02T19:22:38.313Z,2.03
2019-01-02T19:25:09.733Z,2.05
2019-01-02T19:27:41.095Z,2.05
2019-01-02T19:30:12.643Z,2.05
2019-01-02T19:32:45.275Z,2.07
2019-01-02T19:35:16.778Z,2.01
2019-01-02T19:37:48.225Z,2.04
2019-01-02T19:40:19.988Z,1.98
2019-01-02T19:42:51.601Z,1.97
2019-01-02T19:45:23.212Z,2.01
2019-01-02T19:47:54.810Z,1.89
2019-01-02T19:50:26.532Z,1.88
2019-01-02T19:52:58.041Z,1.85
2019-01-02T19:55:29.814Z,1.84
2019-01-02T19:58:01.417Z,1.78
2019-01-02T20:00:32.795Z,1.81
2019-01-02T20:03:04.320Z,1.85
2019-01-02T20:05:35.864Z,1.78
2019-01-02T20:08:07.319Z,1.76
2019-01-02T20:10:38.842Z,1.74
2019-01-02T20:13:10.290Z,1.71
2019-01-02T20:15:41.808Z,1.71
2019-01-02T20:18:13.102Z,1.65
2019-01-02T20:20:44.473Z,1.67
2019-01-02T20:23:16.005Z,1.64
2019-01-02T20:25:47.414Z,1.66
2019-01-02T20:28:18.869Z,1.61
2019-01-02T20:30:50.350Z,1.53
2019-01-02T20:33:21.868Z,1.47
2019-01-02T20:35:53.389Z,1.50
2019-01-02T20:38:24.944Z,1.41
2019-01-02T20:40:56.490Z,1.46
2019-01-02T20:43:28.006Z,1.42
2019-01-02T20:45:59.514Z,1.41
2019-01-02T20:48:30.954Z,1.44
2019-01-02T20:51:02.321Z,1.36
2019-01-02T20:53:33.729Z,1.31
2019-01-02T20:56:05.266Z,1.26
2019-01-02T20:58:36.767Z,1.27
2019-01-02T21:01:08.225Z,1.24
2019-01-02T21:03:39.688Z,1.24
2019-01-02T21:06:11.144Z,1.28
2019-01-02T21:08:42.591Z,1.27
2019-01-02T21:11:13.978Z,1.27
2019-01-02T21:13:45.497Z,1.25
2019-01-02T21:16:16.863Z,1.22
2019-01-02T21:18:48.243Z,1.21
2019-01-02T21:21:19.629Z,1.21
2019-01-02T21:23:51.250Z,1.20
2019-01-02T21:26:22.606Z,1.21
2019-01-02T21:28:54.749Z,1.25
2019-01-02T21:31:26.259Z,1.29
2019-01-02T21:33:57.677Z,1.24
2019-01-02T21:36:29.121Z,1.30
2019-01-02T21:39:01.847Z,1.23
2019-01-02T21:41:34.631Z,1.24
2019-01-02T21:44:06.035Z,1.20
2019-01-02T21:46:37.513Z,1.13
2019-01-02T21:49:08.972Z,1.15
2019-01-02T21:51:41.921Z,1.06
2019-01-02T21:54:13.368Z,1.09
2019-01-02T21:56:44.773Z,1.07
2019-01-02T21:59:16.248Z,1.12
2019-01-02T22:01:47.568Z,1.10
2019-01-02T22:04:20.442Z,1.05
2019-01-02T22:06:51.984Z,1.15
2019-01-02T22:09:23.444Z,1.09
2019-01-02T22:11:54.884Z,1.07
2019-01-02T22:14:26.410Z,1.11
2019-01-02T22:16:57.748Z,1.07
2019-01-02T22:19:31.325Z,1.00
2019-01-02T22:22:02.691Z,1.00
2019-01-02T22:24:34.104Z,1.07
2019-01-02T22:27:05.528Z,1.09
2019-01-02T22:29:36.953Z,0.96
2019-01-02T22:32:08.407Z,0.99
2019-01-02T22:34:39.852Z,1.04
2019-01-02T22:37:11.448Z,1.04
2019-01-02T22:39:44.233Z,1.07
2019-01-02T22:42:15.784Z,1.04
2019-01-02T22:44:47.337Z,1.07
2019-01-02T22:47:18.823Z,1.00
2019-01-02T22:49:50.292Z,0.87
2019-01-02T22:52:21.832Z,0.79
2019-01-02T22:54:53.284Z,0.72
2019-01-02T22:57:24.690Z,0.66
2019-01-02T22:59:56.064Z,0.57
2019-01-02T23:02:46.288Z,0.60
2019-01-02T23:05:33.382Z,0.63
2019-01-02T23:08:23.641Z,0.61
2019-01-02T23:11:17.111Z,0.60
2019-01-02T23:14:16.433Z,0.53
2019-01-02T23:17:18.125Z,0.44
2019-01-02T23:20:08.345Z,0.48
2019-01-02T23:22:57.299Z,0.44
2019-01-02T23:25:46.635Z,0.42
2019-01-02T23:28:35.803Z,0.37
2019-01-02T23:31:25.976Z,0.36
2019-01-02T23:34:14.757Z,0.35
2019-01-02T23:37:03.703Z,0.35
2019-01-02T23:39:56.807Z,0.27
2019-01-02T23:42:52.790Z,0.21
2019-01-02T23:45:58.071Z,0.15
2019-01-02T23:48:47.921Z,0.16
2019-01-02T23:51:36.968Z,0.24
2019-01-02T23:54:33.630Z,0.22
2019-01-02T23:57:35.933Z,0.15
